Time;durP1;ratioP1;P1;durP2;ratioP2;P2;SDS_P1;SDS_P2;PMS_P1;PMS_P2;Temp;Humidity;BMP_temperature;BMP_pressure;BME280_temperature;BME280_humidity;BME280_pressure;Samples;Min_cycle;Max_cycle;Signal;HPM_P1;HPM_P2
2023/07/20 00:01:14;;;;;;;5.77;1.93;;;17.40;1.00;;;;;;5012350;28;20566;-76
2023/07/20 00:03:40;;;;;;;3.97;2.20;;;17.40;1.00;;;;;;5014631;28;20191;-76
2023/07/20 00:06:05;;;;;;;3.27;1.77;;;17.40;1.00;;;;;;5014462;28;20228;-77
2023/07/20 00:08:31;;;;;;;5.43;1.80;;;17.40;1.00;;;;;;5014485;28;20208;-76
2023/07/20 00:10:56;;;;;;;5.17;2.00;;;17.40;1.00;;;;;;5014550;28;20584;-76
2023/07/20 00:13:22;;;;;;;2.60;1.80;;;17.30;1.00;;;;;;5014366;28;20256;-77
2023/07/20 00:15:47;;;;;;;5.57;1.70;;;17.30;1.00;;;;;;5011363;28;20208;-76
2023/07/20 00:18:13;;;;;;;2.00;1.60;;;17.20;6.30;;;;;;5013111;28;20176;-77
2023/07/20 00:20:39;;;;;;;3.87;2.10;;;17.20;27.60;;;;;;5014304;28;20675;-76
2023/07/20 00:23:05;;;;;;;5.13;1.80;;;17.10;42.50;;;;;;5014204;28;20707;-77
2023/07/20 00:25:31;;;;;;;3.33;1.87;;;17.10;50.60;;;;;;5014439;28;20212;-77
2023/07/20 00:27:56;;;;;;;5.80;2.17;;;17.10;69.30;;;;;;5012905;28;20309;-77
2023/07/20 00:30:22;;;;;;;4.23;2.00;;;17.10;54.50;;;;;;5014214;28;20200;-76
2023/07/20 00:32:47;;;;;;;2.90;2.07;;;17.00;92.10;;;;;;5014300;28;20173;-76
2023/07/20 00:35:13;;;;;;;3.70;2.10;;;17.00;99.90;;;;;;5014540;28;20204;-76
2023/07/20 00:37:39;;;;;;;6.40;2.07;;;16.90;99.90;;;;;;5012732;28;20181;-76
2023/07/20 00:40:07;;;;;;;4.57;1.90;;;16.90;99.90;;;;;;5013873;28;20549;-76
2023/07/20 00:42:32;;;;;;;4.17;2.70;;;16.80;99.90;;;;;;5012870;28;20184;-75
2023/07/20 00:44:58;;;;;;;3.17;1.80;;;17.00;99.90;;;;;;5013365;28;20173;-76
2023/07/20 00:47:24;;;;;;;3.97;2.03;;;16.90;99.90;;;;;;5012518;28;20184;-76
2023/07/20 00:49:51;;;;;;;2.83;2.10;;;16.80;99.90;;;;;;5013709;28;20192;-76
2023/07/20 00:52:18;;;;;;;6.10;2.37;;;16.80;99.90;;;;;;5013908;28;20173;-76
2023/07/20 00:54:44;;;;;;;3.90;2.10;;;16.60;99.90;;;;;;5013703;28;20248;-76
2023/07/20 00:57:11;;;;;;;6.57;2.30;;;16.70;99.90;;;;;;5013645;28;20173;-76
2023/07/20 00:59:37;;;;;;;2.87;2.00;;;16.70;99.90;;;;;;5013294;28;20235;-76
2023/07/20 01:02:03;;;;;;;4.13;2.00;;;16.70;99.90;;;;;;5013573;28;20173;-77
2023/07/20 01:04:28;;;;;;;4.97;2.23;;;16.70;99.90;;;;;;5013437;28;20299;-76
2023/07/20 01:07:08;;;;;;;3.90;1.87;;;16.70;99.90;;;;;;5013684;28;20637;-75
2023/07/20 01:09:47;;;;;;;2.27;2.03;;;16.70;99.90;;;;;;5012111;28;20242;-76
2023/07/20 01:12:27;;;;;;;6.53;2.87;;;16.70;99.90;;;;;;5013362;28;20164;-76
2023/07/20 01:14:54;;;;;;;5.00;3.50;;;16.70;99.90;;;;;;5011967;28;20199;-76
2023/07/20 01:17:19;;;;;;;7.23;3.97;;;16.70;99.90;;;;;;5011958;28;20222;-76
2023/07/20 01:19:45;;;;;;;7.40;4.83;;;16.70;99.90;;;;;;5011855;28;20189;-76
2023/07/20 01:22:38;;;;;;;7.63;4.40;;;16.70;99.90;;;;;;5013140;28;20256;-76
2023/07/20 01:25:16;;;;;;;11.53;4.50;;;16.70;99.90;;;;;;5013138;28;20168;-76
2023/07/20 01:27:47;;;;;;;9.23;4.13;;;16.70;99.90;;;;;;5013141;28;20160;-76
2023/07/20 01:30:25;;;;;;;6.57;4.10;;;16.70;99.90;;;;;;5011601;28;20197;-76
2023/07/20 01:32:55;;;;;;;6.80;4.53;;;16.70;99.90;;;;;;5013572;28;20153;-76
2023/07/20 01:35:23;;;;;;;5.20;4.37;;;16.80;99.90;;;;;;5011491;28;20279;-76
2023/07/20 01:37:50;;;;;;;9.40;4.60;;;16.70;99.90;;;;;;5012876;28;20169;-76
2023/07/20 01:40:16;;;;;;;9.53;4.70;;;16.80;99.90;;;;;;5011575;28;20199;-76
2023/07/20 01:42:48;;;;;;;9.67;4.67;;;16.70;99.90;;;;;;5012997;28;20161;-76
2023/07/20 01:45:14;;;;;;;6.83;4.47;;;16.80;99.90;;;;;;5012795;28;20176;-75
2023/07/20 01:47:40;;;;;;;7.10;4.23;;;16.80;99.90;;;;;;5012660;28;20173;-76
2023/07/20 01:50:07;;;;;;;7.43;4.70;;;16.80;99.90;;;;;;5011344;28;20193;-77
2023/07/20 01:52:33;;;;;;;6.30;3.80;;;16.80;99.90;;;;;;5012779;28;20545;-76
2023/07/20 01:54:58;;;;;;;10.47;4.70;;;16.80;99.90;;;;;;5012528;28;20195;-75
2023/07/20 01:57:24;;;;;;;6.13;4.43;;;16.90;99.90;;;;;;5012208;28;20262;-76
2023/07/20 01:59:49;;;;;;;5.50;4.13;;;16.80;99.90;;;;;;5011213;28;20193;-75
2023/07/20 02:02:15;;;;;;;11.57;3.50;;;16.90;99.90;;;;;;5012736;28;20173;-76
2023/07/20 02:04:40;;;;;;;5.23;3.30;;;16.90;99.90;;;;;;5012631;28;20259;-76
2023/07/20 02:07:06;;;;;;;8.27;4.90;;;16.90;99.90;;;;;;5011278;28;20223;-76
2023/07/20 02:09:31;;;;;;;7.77;5.03;;;16.80;99.90;;;;;;5011293;28;20243;-77
2023/07/20 02:11:57;;;;;;;9.07;5.40;;;16.80;99.90;;;;;;5012613;28;20219;-77
2023/07/20 02:14:22;;;;;;;12.00;4.83;;;16.80;99.90;;;;;;5012520;28;20571;-76
2023/07/20 02:16:52;;;;;;;6.60;4.40;;;16.80;99.90;;;;;;5012440;28;20680;-76
2023/07/20 02:19:18;;;;;;;10.50;4.10;;;16.70;99.90;;;;;;5012554;28;20188;-77
2023/07/20 02:21:45;;;;;;;4.53;3.90;;;16.70;99.90;;;;;;5012686;28;20165;-75
2023/07/20 02:24:11;;;;;;;7.23;4.00;;;16.70;99.90;;;;;;5012500;28;20199;-76
2023/07/20 02:26:37;;;;;;;4.80;3.80;;;16.60;99.90;;;;;;5012669;28;20700;-75
2023/07/20 02:29:04;;;;;;;6.97;4.30;;;16.60;99.90;;;;;;5012458;28;20176;-75
2023/07/20 02:31:30;;;;;;;6.40;3.80;;;16.60;99.90;;;;;;5011002;28;20520;-76
2023/07/20 02:33:56;;;;;;;6.60;4.37;;;16.50;99.90;;;;;;5012350;28;20181;-76
2023/07/20 02:36:21;;;;;;;5.57;3.93;;;16.50;99.90;;;;;;5012209;28;20219;-76
2023/07/20 02:38:47;;;;;;;6.70;4.53;;;16.50;99.90;;;;;;5011388;28;20169;-76
2023/07/20 02:41:13;;;;;;;6.20;4.37;;;16.50;99.90;;;;;;5012328;28;20224;-76
2023/07/20 02:43:39;;;;;;;5.27;4.07;;;16.40;99.90;;;;;;5012284;28;20224;-76
2023/07/20 02:46:04;;;;;;;8.50;4.60;;;16.40;99.90;;;;;;5012372;28;20189;-75
2023/07/20 02:48:30;;;;;;;6.53;4.53;;;16.40;99.90;;;;;;5012232;28;20189;-76
2023/07/20 02:50:55;;;;;;;6.40;4.60;;;16.20;99.90;;;;;;5012170;28;20307;-76
2023/07/20 02:53:21;;;;;;;6.83;4.83;;;16.40;99.90;;;;;;5012655;28;20560;-76
2023/07/20 02:55:47;;;;;;;5.23;4.33;;;16.40;99.90;;;;;;5012059;28;20193;-76
2023/07/20 02:58:12;;;;;;;11.33;5.00;;;16.30;99.90;;;;;;5012375;28;20173;-76
2023/07/20 03:00:38;;;;;;;9.03;4.93;;;16.40;99.90;;;;;;5012044;28;20230;-76
2023/07/20 03:03:03;;;;;;;11.30;5.00;;;16.40;99.90;;;;;;5012204;28;20231;-76
2023/07/20 03:05:29;;;;;;;7.40;5.07;;;16.40;99.90;;;;;;5011952;28;20544;-76
2023/07/20 03:07:55;;;;;;;6.53;4.97;;;16.40;99.90;;;;;;5014029;28;20177;-77
2023/07/20 03:10:21;;;;;;;10.00;5.40;;;16.40;99.90;;;;;;5015424;28;20335;-76
2023/07/20 03:12:47;;;;;;;10.57;4.87;;;16.40;99.90;;;;;;5014079;28;20675;-76
2023/07/20 03:15:12;;;;;;;8.47;4.90;;;16.40;99.90;;;;;;5015673;28;20225;-76
2023/07/20 03:17:38;;;;;;;6.70;5.00;;;16.40;99.90;;;;;;5015512;28;20165;-76
2023/07/20 03:20:05;;;;;;;8.67;4.77;;;16.40;99.90;;;;;;5014102;28;20189;-76
2023/07/20 03:22:31;;;;;;;10.43;5.03;;;16.40;99.90;;;;;;5015501;28;20511;-77
2023/07/20 03:24:56;;;;;;;9.67;5.07;;;16.40;99.90;;;;;;5014703;28;20207;-77
2023/07/20 03:27:22;;;;;;;9.47;4.90;;;16.40;99.90;;;;;;5019621;28;20533;-77
2023/07/20 03:29:48;;;;;;;8.17;4.60;;;16.40;99.90;;;;;;5016327;28;20243;-76
2023/07/20 03:32:13;;;;;;;11.00;5.27;;;16.40;99.90;;;;;;5015164;28;20200;-76
2023/07/20 03:34:39;;;;;;;8.30;5.03;;;16.40;99.90;;;;;;5015100;28;20219;-76
2023/07/20 03:37:05;;;;;;;8.77;5.40;;;16.40;99.90;;;;;;5015116;28;20185;-76
2023/07/20 03:39:30;;;;;;;9.37;4.93;;;16.40;99.90;;;;;;5014995;28;20197;-76
2023/07/20 03:41:58;;;;;;;13.10;5.87;;;16.40;99.90;;;;;;5013683;28;20180;-76
2023/07/20 03:44:23;;;;;;;11.73;6.57;;;16.40;99.90;;;;;;5013694;28;20177;-76
2023/07/20 03:46:49;;;;;;;10.93;6.80;;;16.40;99.90;;;;;;5014927;28;20176;-76
2023/07/20 03:49:14;;;;;;;14.93;6.97;;;16.40;99.90;;;;;;5015090;28;20181;-76
2023/07/20 03:51:40;;;;;;;10.67;6.20;;;16.40;99.90;;;;;;5014992;28;20719;-76
2023/07/20 03:54:05;;;;;;;18.40;7.53;;;16.40;99.90;;;;;;5013562;28;20215;-76
2023/07/20 03:56:35;;;;;;;9.93;6.43;;;16.40;99.90;;;;;;5014687;28;20201;-76
2023/07/20 03:59:00;;;;;;;16.43;7.80;;;16.40;99.90;;;;;;5013335;28;20173;-76
2023/07/20 04:01:26;;;;;;;12.67;7.90;;;16.40;99.90;;;;;;5014245;28;20193;-76
2023/07/20 04:03:51;;;;;;;12.53;7.67;;;16.40;99.90;;;;;;5014435;28;20698;-76
2023/07/20 04:06:17;;;;;;;11.07;8.07;;;16.40;99.90;;;;;;5014278;28;20184;-75
2023/07/20 04:08:44;;;;;;;16.30;8.17;;;16.40;99.90;;;;;;5016646;28;20173;-78
2023/07/20 04:11:09;;;;;;;16.50;8.13;;;16.40;99.90;;;;;;5017932;28;20239;-78
2023/07/20 04:13:35;;;;;;;9.37;7.83;;;16.40;99.90;;;;;;5017860;28;20189;-78
2023/07/20 04:16:00;;;;;;;11.67;7.93;;;16.40;99.90;;;;;;5026078;28;20343;-78
2023/07/20 04:18:26;;;;;;;14.23;8.37;;;16.50;99.90;;;;;;5018685;28;20196;-77
2023/07/20 04:20:51;;;;;;;15.73;8.50;;;16.40;99.90;;;;;;5014313;28;20579;-78
2023/07/20 04:23:17;;;;;;;13.30;9.23;;;16.40;99.90;;;;;;5015296;28;20163;-77
2023/07/20 04:25:43;;;;;;;14.03;8.90;;;16.40;99.90;;;;;;5014341;28;20546;-77
2023/07/20 04:28:09;;;;;;;15.43;10.40;;;16.40;99.90;;;;;;5013493;28;20185;-77
2023/07/20 04:30:36;;;;;;;11.33;9.33;;;16.40;99.90;;;;;;5014222;28;20810;-77
2023/07/20 04:33:02;;;;;;;13.30;9.87;;;16.40;99.90;;;;;;5014186;28;20537;-77
2023/07/20 04:35:49;;;;;;;11.93;9.13;;;16.40;99.90;;;;;;5013937;28;20211;-77
2023/07/20 04:38:17;;;;;;;14.93;11.63;;;16.40;99.90;;;;;;5014111;28;20176;-77
2023/07/20 04:40:44;;;;;;;14.73;12.17;;;16.30;99.90;;;;;;5013993;28;20231;-77
2023/07/20 04:43:09;;;;;;;17.37;11.40;;;16.40;99.90;;;;;;5014001;28;20165;-77
2023/07/20 04:45:35;;;;;;;15.70;11.10;;;16.40;99.90;;;;;;5013937;28;20584;-77
2023/07/20 04:48:00;;;;;;;17.67;11.40;;;16.40;99.90;;;;;;5013831;28;20256;-75
2023/07/20 04:50:26;;;;;;;13.67;10.83;;;16.40;99.90;;;;;;5013695;28;20235;-76
2023/07/20 04:52:53;;;;;;;20.13;11.20;;;16.40;99.90;;;;;;5012322;28;20271;-76
2023/07/20 04:55:18;;;;;;;13.23;10.73;;;16.40;99.90;;;;;;5013612;28;20193;-75
2023/07/20 04:57:44;;;;;;;16.70;11.13;;;16.40;99.90;;;;;;5014185;28;20217;-78
2023/07/20 05:00:11;;;;;;;15.23;11.67;;;16.40;99.90;;;;;;5012495;28;20315;-77
2023/07/20 05:02:37;;;;;;;16.60;10.93;;;16.40;99.90;;;;;;5012858;28;20560;-78
2023/07/20 05:05:05;;;;;;;17.50;12.67;;;16.40;99.90;;;;;;5012619;28;20187;-76
2023/07/20 05:07:33;;;;;;;19.17;12.13;;;16.40;99.90;;;;;;5012152;28;20181;-76
2023/07/20 05:09:59;;;;;;;16.50;11.97;;;16.50;99.90;;;;;;5011991;28;20645;-75
2023/07/20 05:12:24;;;;;;;21.20;12.67;;;16.50;99.90;;;;;;5013837;28;20187;-78
2023/07/20 05:14:50;;;;;;;15.17;12.57;;;16.50;99.90;;;;;;5013380;28;20748;-76
2023/07/20 05:17:15;;;;;;;13.90;12.20;;;16.50;99.90;;;;;;5013255;28;20268;-75
2023/07/20 05:19:41;;;;;;;12.47;10.83;;;16.60;99.90;;;;;;5011814;28;20305;-76
2023/07/20 05:22:06;;;;;;;14.60;11.97;;;16.60;99.90;;;;;;5014072;28;20173;-79
2023/07/20 05:24:32;;;;;;;19.73;11.30;;;16.60;99.90;;;;;;5013354;28;20176;-77
2023/07/20 05:26:58;;;;;;;16.00;12.30;;;16.60;99.90;;;;;;5013067;28;20169;-78
2023/07/20 05:29:25;;;;;;;14.13;11.20;;;16.60;99.90;;;;;;5014426;28;20169;-78
2023/07/20 05:31:50;;;;;;;17.87;11.40;;;16.60;99.90;;;;;;5013818;28;20544;-77
2023/07/20 05:34:16;;;;;;;13.40;11.30;;;16.70;99.90;;;;;;5013429;28;20161;-76
2023/07/20 05:36:42;;;;;;;16.17;11.43;;;16.70;99.90;;;;;;5013290;28;20722;-76
2023/07/20 05:39:07;;;;;;;15.07;11.70;;;16.70;99.90;;;;;;5016179;28;20189;-76
2023/07/20 05:41:33;;;;;;;18.27;11.63;;;16.70;99.90;;;;;;5015387;28;20179;-76
2023/07/20 05:43:58;;;;;;;18.67;12.33;;;16.60;99.90;;;;;;5013185;28;20595;-76
2023/07/20 05:46:24;;;;;;;17.90;11.90;;;16.70;99.90;;;;;;5012923;28;20173;-75
2023/07/20 05:48:50;;;;;;;12.90;10.60;;;16.60;99.90;;;;;;5012958;28;20208;-76
2023/07/20 05:51:15;;;;;;;15.37;9.67;;;16.70;99.90;;;;;;5012931;28;20199;-76
2023/07/20 05:53:41;;;;;;;11.40;10.20;;;16.80;99.90;;;;;;5012938;28;20652;-76
2023/07/20 05:56:10;;;;;;;12.17;9.63;;;16.80;99.90;;;;;;5011448;28;20575;-75
2023/07/20 05:58:36;;;;;;;10.67;9.57;;;16.80;99.90;;;;;;5011522;28;20177;-75
2023/07/20 06:01:02;;;;;;;9.63;8.63;;;16.90;99.90;;;;;;5012778;28;20192;-75
2023/07/20 06:03:28;;;;;;;10.80;9.40;;;16.90;99.90;;;;;;5011640;28;20256;-76
2023/07/20 06:06:00;;;;;;;10.93;8.90;;;16.90;99.90;;;;;;5013355;28;20251;-76
2023/07/20 06:08:26;;;;;;;9.57;8.23;;;17.00;99.90;;;;;;5012892;28;20528;-76
2023/07/20 06:10:52;;;;;;;8.57;7.07;;;17.00;99.90;;;;;;5011364;28;20204;-76
2023/07/20 06:13:17;;;;;;;7.53;6.60;;;17.10;99.90;;;;;;5013176;28;20195;-76
2023/07/20 06:15:43;;;;;;;10.60;6.40;;;17.10;99.90;;;;;;5009285;28;20656;-76
2023/07/20 06:18:09;;;;;;;6.67;4.97;;;17.20;99.90;;;;;;5011444;28;20200;-76
2023/07/20 06:20:34;;;;;;;6.27;4.70;;;17.20;78.20;;;;;;5012649;28;20193;-76
2023/07/20 06:23:00;;;;;;;7.07;4.70;;;17.30;41.10;;;;;;5013105;28;20165;-76
2023/07/20 06:25:26;;;;;;;5.53;4.33;;;17.30;1.00;;;;;;5011731;28;20272;-76
2023/07/20 06:27:51;;;;;;;5.10;4.50;;;17.40;1.00;;;;;;5011637;28;20219;-76
2023/07/20 06:30:18;;;;;;;5.10;4.60;;;17.40;1.00;;;;;;5011581;28;20726;-76
2023/07/20 06:32:43;;;;;;;6.17;5.00;;;17.40;99.90;;;;;;5011404;28;20722;-76
2023/07/20 06:35:09;;;;;;;7.47;6.47;;;17.50;99.90;;;;;;5011373;28;20214;-76
2023/07/20 06:37:35;;;;;;;9.30;6.17;;;17.60;99.90;;;;;;5011601;28;20200;-76
2023/07/20 06:40:03;;;;;;;9.47;6.67;;;17.60;99.90;;;;;;5011278;28;20681;-76
2023/07/20 06:42:28;;;;;;;8.30;6.07;;;17.50;83.80;;;;;;5012766;28;20173;-76
2023/07/20 06:44:54;;;;;;;6.37;5.47;;;17.60;99.90;;;;;;5013958;28;20669;-76
2023/07/20 06:47:19;;;;;;;8.80;6.27;;;17.60;99.90;;;;;;5016216;28;20176;-76
2023/07/20 06:49:45;;;;;;;7.57;5.67;;;17.50;1.00;;;;;;5016102;28;20200;-75
2023/07/20 06:52:10;;;;;;;6.90;5.17;;;17.50;1.00;;;;;;5016047;28;20169;-75
2023/07/20 06:54:36;;;;;;;7.90;5.53;;;17.50;92.40;;;;;;5016002;28;20181;-75
2023/07/20 06:57:01;;;;;;;6.13;5.53;;;17.60;99.90;;;;;;5014922;28;20187;-76
2023/07/20 06:59:27;;;;;;;6.67;5.13;;;17.60;99.90;;;;;;5016177;28;20187;-76
2023/07/20 07:01:52;;;;;;;5.20;4.70;;;17.50;1.00;;;;;;5015253;28;20235;-76
2023/07/20 07:04:18;;;;;;;5.63;4.37;;;17.60;1.00;;;;;;5014802;28;20192;-75
2023/07/20 07:06:44;;;;;;;6.43;4.60;;;17.60;83.60;;;;;;5014643;28;20231;-76
2023/07/20 07:09:09;;;;;;;4.63;4.03;;;17.70;99.90;;;;;;5015928;28;20318;-76
2023/07/20 07:11:35;;;;;;;4.67;4.00;;;17.80;99.90;;;;;;5016166;28;20228;-76
2023/07/20 07:14:00;;;;;;;4.90;4.40;;;17.90;99.90;;;;;;5015956;28;20181;-75
2023/07/20 07:16:26;;;;;;;13.43;10.87;;;17.90;99.90;;;;;;5016049;28;20287;-76
2023/07/20 07:18:52;;;;;;;14.10;11.77;;;17.90;99.90;;;;;;5015009;28;20177;-76
2023/07/20 07:21:17;;;;;;;20.07;15.50;;;17.90;99.90;;;;;;5015718;28;20550;-76
2023/07/20 07:23:43;;;;;;;18.33;15.73;;;17.90;1.00;;;;;;5014415;28;20177;-76
2023/07/20 07:26:09;;;;;;;19.60;17.47;;;18.00;99.90;;;;;;5000494;28;20274;-76
2023/07/20 07:28:35;;;;;;;17.80;16.20;;;17.90;1.00;;;;;;5014287;28;20191;-75
2023/07/20 07:31:00;;;;;;;18.00;16.23;;;18.00;1.00;;;;;;5015555;28;20197;-76
2023/07/20 07:33:26;;;;;;;17.43;15.53;;;18.10;20.90;;;;;;5015565;28;20272;-76
2023/07/20 07:35:55;;;;;;;17.80;14.70;;;18.20;99.90;;;;;;5014388;28;20243;-76
2023/07/20 07:38:20;;;;;;;16.17;13.73;;;18.30;1.00;;;;;;5015318;28;20172;-76
2023/07/20 07:40:46;;;;;;;9.43;7.70;;;18.40;1.00;;;;;;5015152;28;20189;-75
2023/07/20 07:43:13;;;;;;;10.27;9.10;;;18.40;23.40;;;;;;5013805;28;20169;-76
2023/07/20 07:45:39;;;;;;;15.90;10.30;;;18.40;1.00;;;;;;5011299;28;20580;-75
2023/07/20 07:48:05;;;;;;;14.83;11.97;;;18.30;1.00;;;;;;5013774;28;20188;-76
2023/07/20 07:50:31;;;;;;;13.50;11.83;;;18.30;1.00;;;;;;5014490;28;20565;-76
2023/07/20 07:52:57;;;;;;;14.20;11.40;;;18.30;99.90;;;;;;5013877;28;20220;-75
2023/07/20 07:55:24;;;;;;;8.83;7.50;;;18.30;1.00;;;;;;5014187;28;20201;-75
2023/07/20 07:57:49;;;;;;;9.23;6.73;;;18.20;1.00;;;;;;5013405;28;20179;-75
2023/07/20 08:00:18;;;;;;;7.20;4.60;;;18.10;99.90;;;;;;5011416;28;20700;-76
2023/07/20 08:02:44;;;;;;;5.73;4.90;;;18.10;1.00;;;;;;5014967;28;20738;-75
2023/07/20 08:05:10;;;;;;;5.20;3.73;;;18.10;99.90;;;;;;5014908;28;20212;-76
2023/07/20 08:07:36;;;;;;;2.83;2.20;;;18.10;99.90;;;;;;5014982;28;20177;-75
2023/07/20 08:10:03;;;;;;;3.47;2.10;;;18.00;99.90;;;;;;5014651;28;20636;-76
2023/07/20 08:12:28;;;;;;;3.07;1.80;;;18.00;99.90;;;;;;5014928;28;20204;-76
2023/07/20 08:14:54;;;;;;;2.07;1.70;;;18.10;1.00;;;;;;5012266;28;20283;-75
2023/07/20 08:17:19;;;;;;;1.87;1.60;;;18.20;1.00;;;;;;5014871;28;20407;-75
2023/07/20 08:19:46;;;;;;;1.73;1.50;;;18.30;99.90;;;;;;5014639;28;20565;-75
2023/07/20 08:22:12;;;;;;;1.50;1.40;;;18.40;99.90;;;;;;5013352;28;20271;-76
2023/07/20 08:24:41;;;;;;;3.80;1.50;;;18.50;99.90;;;;;;5014503;28;20166;-76
2023/07/20 08:27:08;;;;;;;2.40;1.40;;;18.60;99.90;;;;;;5014745;28;20169;-76
2023/07/20 08:36:18;;;;;;;1.70;1.20;;;18.50;99.90;;;;;;5014238;28;20715;-75
2023/07/20 08:38:43;;;;;;;2.37;1.10;;;18.40;99.90;;;;;;5014448;28;20173;-75
2023/07/20 08:41:09;;;;;;;2.03;1.47;;;18.40;99.90;;;;;;5014178;28;20267;-76
2023/07/20 08:43:37;;;;;;;2.77;1.70;;;18.40;18.80;;;;;;5014479;28;20617;-76
2023/07/20 08:46:04;;;;;;;2.13;1.47;;;18.40;36.70;;;;;;5009005;28;20182;-77
2023/07/20 08:48:30;;;;;;;1.97;1.40;;;18.40;99.90;;;;;;4994617;28;20227;-76
2023/07/20 08:51:00;;;;;;;1.77;1.60;;;18.40;1.00;;;;;;4993407;28;20739;-76
2023/07/20 08:53:26;;;;;;;2.33;1.67;;;18.60;1.00;;;;;;4994678;28;20170;-76
2023/07/20 08:55:52;;;;;;;2.30;1.53;;;18.70;99.90;;;;;;4994328;28;20224;-76
2023/07/20 08:58:18;;;;;;;2.50;1.60;;;18.70;99.90;;;;;;4993075;28;20268;-76
2023/07/20 09:00:44;;;;;;;1.37;1.27;;;18.70;99.90;;;;;;4993269;28;20200;-77
2023/07/20 09:03:11;;;;;;;3.03;1.67;;;18.80;20.90;;;;;;4994073;28;20727;-77
2023/07/20 09:05:37;;;;;;;1.50;1.40;;;18.90;1.00;;;;;;5011968;28;20191;-77
2023/07/20 09:08:03;;;;;;;1.63;1.30;;;19.00;1.00;;;;;;5013664;28;20177;-77
2023/07/20 09:10:29;;;;;;;2.40;1.90;;;19.10;1.00;;;;;;5012783;28;20192;-76
2023/07/20 09:12:55;;;;;;;4.73;1.50;;;19.20;1.00;;;;;;5012524;28;20184;-76
2023/07/20 09:15:22;;;;;;;2.50;1.63;;;19.40;99.90;;;;;;5013268;28;20283;-77
2023/07/20 09:17:53;;;;;;;2.67;1.33;;;19.50;99.90;;;;;;5012172;28;20180;-77
2023/07/20 09:20:20;;;;;;;1.70;1.50;;;19.60;99.90;;;;;;5012762;28;20201;-77
2023/07/20 09:22:45;;;;;;;3.40;1.20;;;19.70;1.00;;;;;;5013150;28;20280;-76
2023/07/20 09:25:21;;;;;;;3.17;1.10;;;19.70;1.00;;;;;;5010522;28;20208;-77
2023/07/20 09:27:49;;;;;;;2.27;1.20;;;19.70;1.00;;;;;;5013256;28;20589;-76
2023/07/20 09:30:15;;;;;;;1.40;1.07;;;19.70;1.00;;;;;;5013145;28;20204;-76
2023/07/20 09:32:43;;;;;;;2.93;1.00;;;19.70;1.00;;;;;;5011854;28;20173;-77
2023/07/20 09:35:16;;;;;;;0.97;0.70;;;19.60;1.00;;;;;;5011863;28;20204;-76
2023/07/20 09:37:52;;;;;;;1.60;1.13;;;19.40;1.00;;;;;;5013466;28;20284;-77
2023/07/20 09:40:18;;;;;;;1.47;1.37;;;19.50;1.00;;;;;;5010990;28;20196;-78
2023/07/20 09:42:44;;;;;;;4.23;1.07;;;19.50;1.00;;;;;;5011924;28;20740;-77
2023/07/20 09:45:10;;;;;;;1.53;1.23;;;19.50;99.90;;;;;;5007919;28;20272;-77
2023/07/20 09:47:38;;;;;;;2.03;1.50;;;19.60;1.00;;;;;;5013215;28;20179;-76
2023/07/20 09:50:04;;;;;;;1.43;1.20;;;19.70;99.90;;;;;;5011772;28;20201;-76
2023/07/20 09:52:31;;;;;;;1.57;1.40;;;19.80;99.90;;;;;;5012921;28;20532;-77
2023/07/20 09:54:58;;;;;;;1.40;1.30;;;19.80;99.90;;;;;;5012484;28;20537;-77
2023/07/20 09:57:26;;;;;;;2.20;1.30;;;19.90;99.90;;;;;;5011703;28;20203;-77
2023/07/20 09:59:51;;;;;;;1.53;1.27;;;19.90;99.90;;;;;;5011834;28;20193;-76
2023/07/20 10:02:22;;;;;;;3.33;1.03;;;19.90;99.90;;;;;;5009821;28;20189;-76
2023/07/20 10:04:53;;;;;;;0.90;0.77;;;20.10;99.90;;;;;;5016436;28;20173;-76
2023/07/20 10:07:21;;;;;;;2.40;1.00;;;20.20;17.40;;;;;;5014724;28;20173;-77
2023/07/20 10:09:50;;;;;;;0.80;0.80;;;20.20;82.50;;;;;;5002714;28;20193;-76
2023/07/20 10:12:16;;;;;;;1.07;0.97;;;20.30;99.90;;;;;;4991920;28;20180;-76
2023/07/20 10:14:51;;;;;;;1.80;0.80;;;20.30;67.70;;;;;;4993045;28;20169;-76
2023/07/20 10:17:18;;;;;;;1.07;0.77;;;20.30;1.00;;;;;;4994376;28;20157;-76
2023/07/20 10:19:47;;;;;;;2.13;1.00;;;20.30;59.00;;;;;;5014299;28;20196;-76
2023/07/20 10:22:16;;;;;;;0.90;0.70;;;20.40;1.00;;;;;;5016798;28;20175;-76
2023/07/20 10:24:45;;;;;;;2.73;0.97;;;20.40;1.00;;;;;;5016785;28;20177;-76
2023/07/20 10:27:11;;;;;;;1.30;0.70;;;20.40;1.00;;;;;;5015494;28;20179;-76
2023/07/20 10:29:37;;;;;;;1.13;0.87;;;20.40;46.40;;;;;;5013716;28;20205;-76
2023/07/20 10:32:04;;;;;;;1.77;0.60;;;20.30;21.60;;;;;;5015788;28;20181;-76
2023/07/20 10:34:30;;;;;;;5.07;0.90;;;20.40;1.00;;;;;;5015051;28;20597;-76
2023/07/20 10:36:55;;;;;;;2.87;0.80;;;20.50;20.70;;;;;;5017119;28;20185;-76
2023/07/20 10:39:30;;;;;;;2.67;0.70;;;20.60;99.30;;;;;;5016621;28;20223;-76
2023/07/20 10:42:14;;;;;;;0.97;0.63;;;20.80;1.00;;;;;;5017480;28;20181;-76
2023/07/20 10:44:40;;;;;;;1.57;0.80;;;20.90;1.00;;;;;;5017125;28;20162;-77
2023/07/20 10:47:10;;;;;;;1.40;0.67;;;21.20;1.00;;;;;;5015321;28;20180;-77
2023/07/20 10:50:00;;;;;;;1.37;0.50;;;21.00;1.00;;;;;;5016202;28;20185;-77
2023/07/20 10:52:25;;;;;;;0.70;0.60;;;21.10;1.00;;;;;;5016464;28;20161;-76
2023/07/20 10:54:51;;;;;;;2.23;0.80;;;21.30;97.30;;;;;;5014901;28;20207;-77
2023/07/20 10:57:37;;;;;;;2.87;0.77;;;21.20;1.00;;;;;;5015025;28;20261;-76
2023/07/20 11:00:22;;;;;;;1.30;0.90;;;21.30;1.00;;;;;;5014407;28;20645;-76
2023/07/20 11:02:49;;;;;;;1.33;0.70;;;21.30;1.00;;;;;;5016247;28;20211;-76
2023/07/20 11:05:38;;;;;;;0.67;0.60;;;21.50;1.00;;;;;;5016026;28;20170;-77
2023/07/20 11:08:24;;;;;;;2.23;0.80;;;21.50;1.00;;;;;;5009008;28;20257;-77
2023/07/20 11:11:27;;;;;;;0.97;0.60;;;21.50;1.00;;;;;;5015583;28;20677;-77
2023/07/20 11:13:56;;;;;;;0.73;0.50;;;21.20;1.00;;;;;;5020370;28;20157;-77
2023/07/20 11:16:33;;;;;;;1.47;0.70;;;21.10;1.00;;;;;;5020113;28;20189;-77
2023/07/20 11:18:59;;;;;;;0.70;0.70;;;21.10;1.00;;;;;;5018583;28;20208;-77
2023/07/20 11:21:25;;;;;;;1.37;0.73;;;21.20;1.00;;;;;;5020933;28;20204;-77
2023/07/20 11:23:52;;;;;;;0.93;0.70;;;21.30;36.50;;;;;;5020000;28;20173;-77
2023/07/20 11:26:19;;;;;;;0.90;0.67;;;21.50;19.80;;;;;;5019850;28;20760;-77
2023/07/20 11:28:51;;;;;;;3.33;0.80;;;21.70;1.00;;;;;;5019717;28;20165;-77
2023/07/20 11:31:18;;;;;;;1.73;0.70;;;21.90;1.00;;;;;;5018497;28;20212;-76
2023/07/20 11:33:44;;;;;;;2.20;0.80;;;22.00;1.00;;;;;;5014823;28;20184;-76
2023/07/20 11:36:10;;;;;;;2.00;0.60;;;22.10;1.00;;;;;;5015588;28;20232;-77
2023/07/20 11:38:35;;;;;;;0.80;0.60;;;21.90;1.00;;;;;;5015463;28;20536;-77
2023/07/20 11:41:03;;;;;;;1.00;0.70;;;22.00;1.00;;;;;;5015431;28;20613;-77
2023/07/20 11:43:30;;;;;;;1.13;0.80;;;21.90;1.00;;;;;;5015346;28;20169;-77
2023/07/20 11:45:55;;;;;;;0.60;0.50;;;21.80;1.00;;;;;;5015328;28;20224;-77
2023/07/20 11:48:21;;;;;;;1.33;0.70;;;21.80;1.00;;;;;;5013986;28;20221;-77
2023/07/20 11:50:46;;;;;;;1.50;0.87;;;21.70;1.00;;;;;;5015381;28;20193;-77
2023/07/20 11:53:13;;;;;;;2.00;0.70;;;21.70;1.00;;;;;;5015326;28;20181;-77
2023/07/20 11:55:40;;;;;;;5.60;0.80;;;21.90;1.00;;;;;;5015350;28;20188;-77
2023/07/20 11:58:07;;;;;;;3.00;1.07;;;21.90;1.00;;;;;;5015498;28;20224;-77
2023/07/20 12:00:35;;;;;;;1.20;0.83;;;22.00;1.00;;;;;;5014939;28;20280;-77
2023/07/20 12:03:00;;;;;;;1.00;0.53;;;22.20;1.00;;;;;;5015065;28;20173;-77
2023/07/20 12:05:26;;;;;;;2.83;0.87;;;22.20;1.00;;;;;;5014960;28;20188;-77
2023/07/20 12:07:52;;;;;;;1.00;0.90;;;22.30;1.00;;;;;;5013667;28;20184;-78
2023/07/20 12:10:28;;;;;;;1.50;0.93;;;22.50;1.00;;;;;;5013601;28;20292;-77
2023/07/20 12:12:54;;;;;;;1.70;0.87;;;22.70;1.00;;;;;;5013957;28;20173;-78
2023/07/20 12:15:20;;;;;;;1.47;0.87;;;22.80;1.00;;;;;;5017356;28;20229;-77
2023/07/20 12:17:46;;;;;;;1.50;0.80;;;22.70;1.00;;;;;;5018292;28;20200;-77
2023/07/20 12:20:12;;;;;;;1.20;0.63;;;22.50;1.00;;;;;;5014787;28;20327;-77
2023/07/20 12:22:40;;;;;;;1.53;0.60;;;22.50;1.00;;;;;;5014574;28;20166;-77
2023/07/20 12:25:07;;;;;;;1.43;0.60;;;22.40;1.00;;;;;;5014483;28;20597;-78
2023/07/20 12:27:33;;;;;;;0.63;0.50;;;22.20;1.00;;;;;;5014596;28;20173;-77
2023/07/20 12:29:58;;;;;;;1.33;0.60;;;21.90;1.00;;;;;;5014395;28;20193;-77
2023/07/20 12:32:24;;;;;;;1.03;0.50;;;21.90;1.00;;;;;;5013195;28;20173;-77
2023/07/20 12:34:49;;;;;;;2.53;0.80;;;21.80;1.00;;;;;;5014485;28;20208;-78
2023/07/20 12:37:18;;;;;;;0.70;0.50;;;21.70;1.00;;;;;;5014249;28;20173;-77
2023/07/20 12:39:46;;;;;;;1.70;0.50;;;21.70;1.00;;;;;;5012289;28;20572;-76
2023/07/20 12:42:14;;;;;;;5.07;0.70;;;21.80;1.00;;;;;;5012999;28;20231;-77
2023/07/20 12:44:40;;;;;;;1.10;0.70;;;21.70;1.00;;;;;;5014593;28;20165;-77
2023/07/20 12:47:05;;;;;;;1.10;0.67;;;21.70;1.00;;;;;;5013105;28;20645;-77
2023/07/20 12:49:31;;;;;;;0.93;0.53;;;21.80;1.00;;;;;;5014481;28;20197;-77
2023/07/20 12:51:56;;;;;;;2.90;0.77;;;21.80;1.00;;;;;;5013404;28;20264;-78